createdAt,value
2023-02-21T00:01:16.688Z,7.30
2023-02-21T00:05:37.533Z,7.24
2023-02-21T00:09:58.247Z,7.23
2023-02-21T00:14:19.800Z,7.31
2023-02-21T00:18:40.330Z,7.32
2023-02-21T00:23:00.410Z,7.34
2023-02-21T00:27:20.544Z,7.34
2023-02-21T00:31:42.852Z,7.46
2023-02-21T00:36:03.446Z,7.27
2023-02-21T00:40:24.701Z,7.12
2023-02-21T00:44:44.963Z,7.07
2023-02-21T00:49:06.880Z,6.99
2023-02-21T00:53:27.078Z,7.06
2023-02-21T00:57:47.798Z,7.01
2023-02-21T01:02:08.030Z,6.88
2023-02-21T01:06:32.179Z,6.96
2023-02-21T01:10:52.759Z,6.85
2023-02-21T01:15:13.005Z,6.94
2023-02-21T01:19:33.897Z,6.92
2023-02-21T01:23:55.800Z,7.02
2023-02-21T01:28:15.884Z,6.99
2023-02-21T01:32:36.677Z,7.01
2023-02-21T01:37:00.362Z,7.05
2023-02-21T01:41:23.771Z,7.07
2023-02-21T01:46:05.592Z,7.33
2023-02-21T01:50:30.752Z,7.42
2023-02-21T01:54:54.877Z,7.46
2023-02-21T01:59:20.135Z,7.61
2023-02-21T02:03:40.912Z,7.54
2023-02-21T02:08:04.725Z,7.43
2023-02-21T02:12:36.033Z,7.34
2023-02-21T02:16:45.635Z,7.36
2023-02-21T02:21:06.656Z,7.38
2023-02-21T02:25:22.969Z,7.46
2023-02-21T02:29:50.831Z,7.38
2023-02-21T02:34:10.533Z,7.34
2023-02-21T02:38:23.906Z,7.28
2023-02-21T02:42:40.299Z,7.27
2023-02-21T02:46:47.091Z,7.26
2023-02-21T02:50:52.464Z,7.22
2023-02-21T02:55:05.111Z,7.19
2023-02-21T02:59:16.785Z,7.10
2023-02-21T03:03:39.868Z,6.98
2023-02-21T03:07:52.260Z,6.94
2023-02-21T03:12:02.926Z,6.89
2023-02-21T03:16:14.049Z,6.86
2023-02-21T03:20:18.619Z,6.81
2023-02-21T03:24:23.103Z,6.86
2023-02-21T03:28:28.408Z,6.82
2023-02-21T03:32:34.506Z,6.81
2023-02-21T03:36:39.694Z,6.88
2023-02-21T03:40:42.865Z,6.78
2023-02-21T03:44:46.702Z,6.65
2023-02-21T03:48:49.910Z,6.54
2023-02-21T03:52:53.107Z,6.44
2023-02-21T03:56:56.258Z,6.35
2023-02-21T04:01:00.970Z,6.31
2023-02-21T04:05:04.562Z,6.26
2023-02-21T04:09:10.197Z,6.29
2023-02-21T04:13:16.110Z,6.25
2023-02-21T04:17:20.624Z,6.17
2023-02-21T04:21:23.822Z,5.98
2023-02-21T04:25:26.815Z,5.89
2023-02-21T04:29:30.054Z,5.68
2023-02-21T04:33:34.783Z,5.68
2023-02-21T04:37:38.064Z,5.59
2023-02-21T04:41:41.432Z,5.62
2023-02-21T04:45:44.239Z,5.58
2023-02-21T04:49:52.795Z,5.54
2023-02-21T04:53:56.851Z,5.47
2023-02-21T04:58:00.885Z,5.46
2023-02-21T05:02:06.113Z,5.44
2023-02-21T05:06:10.556Z,5.36
2023-02-21T05:10:13.927Z,5.21
2023-02-21T05:14:18.515Z,5.17
2023-02-21T05:18:28.409Z,5.13
2023-02-21T05:22:32.918Z,5.06
2023-02-21T05:26:38.475Z,5.03
2023-02-21T05:30:41.451Z,5.01
2023-02-21T05:34:47.948Z,4.89
2023-02-21T05:38:54.667Z,4.98
2023-02-21T05:42:57.694Z,5.10
2023-02-21T05:47:02.540Z,5.31
2023-02-21T05:51:05.698Z,5.53
2023-02-21T05:55:10.296Z,5.60
2023-02-21T05:59:15.980Z,5.67
2023-02-21T06:03:19.029Z,5.75
2023-02-21T06:07:22.100Z,5.92
2023-02-21T06:11:33.509Z,5.94
2023-02-21T06:15:36.744Z,6.04
2023-02-21T06:19:39.830Z,6.03
2023-02-21T06:23:42.830Z,6.09
2023-02-21T06:27:47.353Z,6.18
2023-02-21T06:31:52.457Z,6.30
2023-02-21T06:35:55.758Z,6.52
2023-02-21T06:39:58.726Z,7.07
2023-02-21T06:44:03.149Z,6.98
2023-02-21T06:48:08.486Z,6.90
2023-02-21T06:52:12.813Z,6.83
2023-02-21T06:56:16.080Z,6.81
2023-02-21T07:00:22.189Z,6.75
2023-02-21T07:04:25.679Z,6.76
2023-02-21T07:08:28.588Z,6.90
2023-02-21T07:12:31.528Z,7.06
2023-02-21T07:16:35.866Z,7.25
2023-02-21T07:20:41.580Z,7.61
2023-02-21T07:24:47.212Z,7.82
2023-02-21T07:28:50.911Z,7.55
2023-02-21T07:36:57.088Z,7.41
2023-02-21T07:41:04.822Z,7.46
2023-02-21T07:45:08.270Z,7.37
2023-02-21T07:49:12.596Z,7.52
2023-02-21T07:53:17.092Z,7.40
2023-02-21T07:57:20.463Z,7.31
2023-02-21T08:01:26.218Z,7.26
2023-02-21T08:05:33.886Z,7.19
2023-02-21T08:09:40.073Z,7.16
2023-02-21T08:13:43.059Z,7.13
2023-02-21T08:17:46.200Z,7.04
2023-02-21T08:21:51.303Z,7.08
2023-02-21T08:25:54.335Z,7.23
2023-02-21T08:29:57.389Z,7.59
2023-02-21T08:34:00.408Z,7.63
2023-02-21T08:38:05.206Z,7.72
2023-02-21T08:42:08.365Z,7.66
2023-02-21T08:46:11.339Z,7.50
2023-02-21T08:50:15.302Z,7.34
2023-02-21T08:54:19.797Z,7.22
2023-02-21T08:58:22.973Z,7.30
2023-02-21T09:02:27.337Z,7.34
2023-02-21T09:06:30.801Z,7.43
2023-02-21T09:10:35.318Z,7.59
2023-02-21T09:14:39.686Z,7.72
2023-02-21T09:18:42.854Z,8.17
2023-02-21T09:22:48.938Z,8.53
2023-02-21T09:26:55.509Z,9.05
2023-02-21T09:30:58.753Z,9.77
2023-02-21T09:35:01.205Z,10.08
2023-02-21T09:39:06.753Z,10.01
2023-02-21T09:43:16.515Z,9.20
2023-02-21T09:47:28.334Z,9.14
2023-02-21T09:51:32.720Z,9.44
2023-02-21T09:55:41.421Z,9.49
2023-02-21T09:59:46.512Z,9.32
2023-02-21T10:03:58.962Z,9.13
2023-02-21T10:08:10.760Z,9.41
2023-02-21T10:12:26.160Z,10.09
2023-02-21T10:16:38.934Z,10.06
2023-02-21T10:20:46.982Z,9.99
2023-02-21T10:24:50.776Z,10.30
2023-02-21T10:28:56.931Z,10.33
2023-02-21T10:33:06.843Z,10.38
2023-02-21T10:37:27.681Z,10.07
2023-02-21T10:41:32.643Z,10.70
2023-02-21T10:45:46.627Z,10.13
2023-02-21T10:49:59.737Z,9.79
2023-02-21T10:54:21.962Z,9.65
2023-02-21T10:58:29.445Z,9.71
2023-02-21T11:02:35.987Z,9.40
2023-02-21T11:06:45.885Z,9.57
2023-02-21T11:10:56.632Z,9.49
2023-02-21T11:15:17.770Z,9.73
2023-02-21T11:19:22.362Z,10.05
2023-02-21T11:23:29.751Z,9.92
2023-02-21T11:27:36.287Z,9.54
2023-02-21T11:31:41.632Z,9.72
2023-02-21T11:35:48.378Z,9.50
2023-02-21T11:39:53.870Z,9.61
2023-02-21T11:43:58.041Z,9.44
2023-02-21T11:48:06.670Z,9.36
2023-02-21T11:52:13.467Z,9.25
2023-02-21T11:56:33.160Z,9.16
2023-02-21T12:01:08.380Z,8.86
2023-02-21T12:05:32.218Z,8.83
2023-02-21T12:09:46.401Z,8.71
2023-02-21T12:14:02.862Z,8.67
2023-02-21T12:18:25.019Z,8.48
2023-02-21T12:22:45.689Z,8.27
2023-02-21T12:26:56.828Z,8.33
2023-02-21T12:31:13.967Z,8.23
2023-02-21T12:36:06.079Z,8.28
2023-02-21T12:40:21.912Z,8.35
2023-02-21T12:44:39.365Z,8.36
2023-02-21T12:48:49.903Z,8.41
2023-02-21T12:53:03.231Z,8.46
2023-02-21T12:57:12.719Z,8.51
2023-02-21T13:01:20.776Z,8.32
2023-02-21T13:05:35.246Z,8.11
2023-02-21T13:09:44.846Z,7.94
2023-02-21T13:13:48.923Z,7.73
2023-02-21T13:17:58.366Z,7.75
2023-02-21T13:22:14.850Z,7.77
2023-02-21T13:26:42.074Z,7.90
2023-02-21T13:30:51.939Z,7.88
2023-02-21T13:35:00.844Z,7.81
2023-02-21T13:39:16.857Z,7.80
2023-02-21T13:43:25.759Z,7.84
2023-02-21T13:47:28.625Z,7.69
2023-02-21T13:51:48.961Z,7.57
2023-02-21T13:56:40.710Z,7.57
2023-02-21T14:01:18.380Z,7.59
2023-02-21T14:05:25.133Z,7.57
2023-02-21T14:09:28.470Z,7.59
2023-02-21T14:13:36.635Z,7.57
2023-02-21T14:17:39.578Z,7.61
2023-02-21T14:21:42.810Z,7.62
2023-02-21T14:25:58.493Z,7.63
2023-02-21T14:30:37.512Z,7.58
2023-02-21T14:34:50.092Z,7.56
2023-02-21T14:38:58.723Z,7.52
2023-02-21T14:43:21.844Z,7.44
2023-02-21T14:47:42.415Z,7.42
2023-02-21T14:52:19.010Z,7.35
2023-02-21T14:56:48.611Z,7.31
2023-02-21T15:01:05.410Z,7.24
2023-02-21T15:05:18.149Z,7.14
2023-02-21T15:09:23.159Z,7.07
2023-02-21T15:13:29.796Z,7.04
2023-02-21T15:17:32.378Z,6.99
2023-02-21T15:21:36.763Z,6.94
2023-02-21T15:25:41.878Z,6.92
2023-02-21T15:29:47.021Z,6.84
2023-02-21T15:33:54.758Z,6.73
2023-02-21T15:38:00.535Z,6.77
2023-02-21T15:42:07.245Z,6.75
2023-02-21T15:46:14.942Z,6.70
2023-02-21T15:50:25.989Z,6.69
2023-02-21T15:54:32.511Z,6.66
2023-02-21T15:58:36.088Z,6.63
2023-02-21T16:02:39.180Z,6.67
2023-02-21T16:06:48.929Z,6.61
2023-02-21T16:10:53.768Z,6.58
2023-02-21T16:15:00.383Z,6.54
2023-02-21T16:19:03.873Z,6.51
2023-02-21T16:23:25.788Z,6.51
2023-02-21T16:27:29.840Z,6.52
2023-02-21T16:31:36.969Z,6.52
2023-02-21T16:35:43.643Z,6.51
2023-02-21T16:39:46.743Z,6.46
2023-02-21T16:43:51.057Z,6.42
2023-02-21T16:47:58.395Z,6.41
2023-02-21T16:52:04.266Z,6.39
2023-02-21T16:56:09.889Z,6.39
2023-02-21T17:00:19.891Z,6.42
2023-02-21T17:04:24.274Z,6.41
2023-02-21T17:08:28.555Z,6.38
2023-02-21T17:12:30.924Z,6.40
2023-02-21T17:16:34.988Z,6.39
2023-02-21T17:20:38.140Z,6.39
2023-02-21T17:24:43.567Z,6.38
2023-02-21T17:28:46.569Z,6.31
2023-02-21T17:32:52.220Z,6.29
2023-02-21T17:36:55.380Z,6.30
2023-02-21T17:40:59.910Z,6.27
2023-02-21T17:45:04.354Z,6.29
2023-02-21T17:49:08.614Z,6.27
2023-02-21T17:53:11.127Z,6.21
2023-02-21T17:57:14.262Z,6.20
2023-02-21T18:01:19.230Z,6.17
2023-02-21T18:05:24.343Z,6.15
2023-02-21T18:09:27.389Z,6.11
2023-02-21T18:13:30.156Z,6.16
2023-02-21T18:17:33.131Z,6.16
2023-02-21T18:21:41.423Z,6.16
2023-02-21T18:25:44.738Z,6.16
2023-02-21T18:29:54.642Z,6.10
2023-02-21T18:33:57.394Z,6.12
2023-02-21T18:38:01.905Z,6.12
2023-02-21T18:42:07.086Z,6.08
2023-02-21T18:46:12.375Z,6.07
2023-02-21T18:50:15.427Z,6.02
2023-02-21T18:54:21.405Z,5.99
2023-02-21T18:58:24.707Z,5.94
2023-02-21T19:02:28.447Z,5.94
2023-02-21T19:06:33.806Z,5.82
2023-02-21T19:10:38.585Z,5.72
2023-02-21T19:14:42.241Z,5.56
2023-02-21T19:18:47.935Z,5.49
2023-02-21T19:22:52.357Z,5.27
2023-02-21T19:26:57.436Z,5.05
2023-02-21T19:31:01.048Z,4.99
2023-02-21T19:35:04.962Z,4.82
2023-02-21T19:39:09.230Z,4.61
2023-02-21T19:43:13.657Z,4.50
2023-02-21T19:47:17.046Z,4.39
2023-02-21T19:51:22.130Z,4.39
2023-02-21T19:55:25.982Z,4.31
2023-02-21T19:59:30.376Z,4.22
2023-02-21T20:03:34.246Z,4.03
2023-02-21T20:07:37.215Z,3.93
2023-02-21T20:11:40.591Z,3.91
2023-02-21T20:15:45.124Z,3.98
2023-02-21T20:19:54.098Z,3.98
2023-02-21T20:23:58.104Z,3.89
2023-02-21T20:28:01.437Z,3.88
2023-02-21T20:32:07.338Z,3.89
2023-02-21T20:36:10.838Z,3.90
2023-02-21T20:40:16.074Z,3.84
2023-02-21T20:44:19.097Z,3.81
2023-02-21T20:48:25.722Z,3.98
2023-02-21T20:52:28.833Z,4.05
2023-02-21T20:56:34.009Z,4.17
2023-02-21T21:00:37.991Z,4.28
2023-02-21T21:04:45.982Z,4.41
2023-02-21T21:08:49.342Z,4.49
2023-02-21T21:13:04.712Z,4.55
2023-02-21T21:17:10.241Z,4.49
2023-02-21T21:21:19.012Z,4.45
2023-02-21T21:25:26.196Z,4.44
2023-02-21T21:29:32.568Z,4.36
2023-02-21T21:33:35.750Z,4.17
2023-02-21T21:37:40.501Z,3.99
2023-02-21T21:41:46.639Z,3.99
2023-02-21T21:45:49.496Z,3.98
2023-02-21T21:49:52.731Z,3.84
2023-02-21T21:53:57.952Z,3.67
2023-02-21T21:58:01.763Z,3.58
2023-02-21T22:02:07.588Z,3.57
2023-02-21T22:06:13.478Z,3.54
2023-02-21T22:10:19.267Z,3.59
2023-02-21T22:14:23.555Z,3.72
2023-02-21T22:18:26.336Z,3.96
2023-02-21T22:22:29.245Z,4.02
2023-02-21T22:26:33.567Z,3.99
2023-02-21T22:30:37.180Z,3.99
2023-02-21T22:34:40.908Z,4.00
2023-02-21T22:38:47.664Z,4.05
2023-02-21T22:42:52.729Z,4.07
2023-02-21T22:46:58.884Z,4.06
2023-02-21T22:51:01.986Z,4.09
2023-02-21T22:55:05.656Z,4.11
2023-02-21T22:59:12.813Z,4.07
2023-02-21T23:03:16.643Z,4.02
2023-02-21T23:07:21.518Z,4.00
2023-02-21T23:11:25.086Z,3.97
2023-02-21T23:15:29.191Z,3.94
2023-02-21T23:19:32.407Z,3.91
2023-02-21T23:23:35.974Z,3.88
2023-02-21T23:27:41.377Z,3.81
2023-02-21T23:31:46.092Z,3.63
2023-02-21T23:35:51.976Z,3.53
2023-02-21T23:39:54.846Z,3.46
2023-02-21T23:44:00.760Z,3.41
2023-02-21T23:48:08.155Z,3.40
2023-02-21T23:52:12.407Z,3.37
2023-02-21T23:56:15.177Z,3.34
